Etusivu
METAR-TAF:

METAR-TAF

Lentoasemat :

Norrköping, Ruotsi

Leveyspiiri: 58-35N, Pituuspiiri: 016-09E, korkeus merenpinnasta: 34 m

Tämänhetkinen sää

Tämä raportti tehtiin 10 minuuttia sitten, kello 12.20 UTC
Tuuli 11 kn lännestä
Lämpötila 16°C
Kosteus 48%
Ilmanpaine 1001 hPa
Näkyvyys 10 km tai enemmän
Hajanaisia pilviä 4500 ft:n korkeudessa

METAR: ESSP 231220Z 28011KT 9999 SCT045 16/05 Q1001

Aika: 14:30 (12:30 UTC)

Sääennuste

Tämä raportti tehtiin 10 tuntia ja 0 minuuttia sitten, kello 02.30 UTC
Ennuste voimassa 23. päivästä klo 02 UTC - 23. päivään klo 07 UTC
Tuuli 12 kn lännestä/lounaasta
Näkyvyys 10 km tai enemmän
Hajonneita pilviä 3000 ft:n korkeudessa

TAF: ESSP 230230Z 2302/2307 25012KT 9999 BKN030

Säähavainnot ja -ennusteet yli 4000 lentoasemalta (METAR- ja TAF-raportit).

Käytössä olevat sääasemat on merkitty karttaan keltaisilla ja punaisilla pisteillä.

Aseta hiiri pisteen päälle nähdäksesi sääaseman nimen.

Klikkaa sitten nähdäksesi säähavainnot ja -ennusteet.

Kartan vaihtaminen: klikkaa mustalla rastilla varustettuja vihreitä pisteitä, niin voit zoomata sisään; viivalla varustettua vihreää pistettä, niin voit zoomata ulos tai vihreitä nuolia, niin pääset viereisille kartoille.


METAR-TAF: